Time;durP1;ratioP1;P1;durP2;ratioP2;P2;SDS_P1;SDS_P2;PMS_P1;PMS_P2;Temp;Humidity;BMP_temperature;BMP_pressure;BME280_temperature;BME280_humidity;BME280_pressure;Samples;Min_cycle;Max_cycle;Signal;HPM_P1;HPM_P2
2022/01/17 00:00:55;;;;;;;3.42;1.88;;;25.20;62.90;;;;;;4997468;28;20113;-71
2022/01/17 00:03:24;;;;;;;5.65;1.83;;;25.20;62.80;;;;;;4997154;28;20077;-70
2022/01/17 00:05:52;;;;;;;6.20;2.97;;;25.10;62.80;;;;;;4996831;28;20062;-72
2022/01/17 00:08:19;;;;;;;4.28;1.55;;;25.20;62.90;;;;;;4999991;28;20102;-71
2022/01/17 00:10:46;;;;;;;7.32;1.92;;;25.10;62.80;;;;;;4994692;28;20093;-72
2022/01/17 00:13:22;;;;;;;23.05;2.85;;;25.10;62.70;;;;;;4997680;28;20034;-68
2022/01/17 00:15:53;;;;;;;7.22;1.80;;;25.10;62.80;;;;;;4997836;28;20022;-70
2022/01/17 00:18:27;;;;;;;9.05;2.00;;;25.10;62.90;;;;;;5001046;28;20021;-74
2022/01/17 00:20:54;;;;;;;3.35;2.03;;;25.10;63.00;;;;;;4993435;28;20025;-72
2022/01/17 00:23:20;;;;;;;2.78;1.65;;;25.10;63.10;;;;;;4997129;28;20685;-74
2022/01/17 00:25:47;;;;;;;8.43;2.42;;;25.00;63.00;;;;;;4996613;28;20636;-74
2022/01/17 00:28:13;;;;;;;3.88;1.45;;;25.00;63.10;;;;;;5001042;28;20473;-70
2022/01/17 00:30:40;;;;;;;2.90;2.08;;;25.00;63.10;;;;;;4994373;28;20149;-75
2022/01/17 00:33:06;;;;;;;5.00;2.53;;;25.00;63.20;;;;;;4995434;28;20037;-69
2022/01/17 00:35:32;;;;;;;3.92;1.75;;;25.00;63.20;;;;;;4990506;28;20026;-69
2022/01/17 00:37:59;;;;;;;5.32;1.80;;;25.00;63.10;;;;;;5001473;28;20030;-72
2022/01/17 00:40:26;;;;;;;3.47;2.05;;;25.00;63.20;;;;;;4992973;28;20955;-70
2022/01/17 00:42:52;;;;;;;2.95;1.73;;;25.00;63.20;;;;;;5000524;28;20017;-69
2022/01/17 00:45:24;;;;;;;3.25;1.83;;;25.00;63.30;;;;;;4992720;28;21328;-74
2022/01/17 00:47:51;;;;;;;3.75;2.28;;;24.90;63.30;;;;;;4990603;28;20025;-70
2022/01/17 00:50:18;;;;;;;5.60;1.75;;;25.00;63.50;;;;;;4997828;28;20022;-72
2022/01/17 00:52:44;;;;;;;11.75;1.90;;;24.90;63.50;;;;;;4996952;28;20552;-71
2022/01/17 00:55:11;;;;;;;5.72;1.73;;;24.90;63.60;;;;;;4996688;28;20022;-72
2022/01/17 00:57:37;;;;;;;6.15;1.85;;;24.90;63.60;;;;;;4988140;28;20026;-75
2022/01/17 01:00:05;;;;;;;5.47;2.05;;;24.90;63.60;;;;;;4997797;28;20485;-69
2022/01/17 01:02:32;;;;;;;3.63;1.85;;;24.90;63.60;;;;;;4996331;28;20049;-72
2022/01/17 01:04:58;;;;;;;3.75;2.05;;;24.90;63.60;;;;;;5003371;28;20053;-73
2022/01/17 01:07:25;;;;;;;6.22;2.13;;;24.90;63.70;;;;;;5000120;28;20026;-69
2022/01/17 01:10:02;;;;;;;6.65;1.92;;;24.80;63.80;;;;;;5000801;28;20110;-71
2022/01/17 01:12:29;;;;;;;6.78;2.40;;;24.90;64.00;;;;;;5002133;28;20030;-73
2022/01/17 01:14:56;;;;;;;4.10;2.38;;;24.80;64.10;;;;;;5002811;28;20490;-75
2022/01/17 01:17:46;;;;;;;6.25;2.30;;;24.80;64.20;;;;;;4998291;28;20493;-71
2022/01/17 01:28:12;;;;;;;6.28;2.20;;;24.80;64.50;;;;;;4999596;28;20112;-75
2022/01/17 01:30:43;;;;;;;8.85;3.47;;;24.70;64.60;;;;;;5002857;28;20025;-69
2022/01/17 01:33:10;;;;;;;8.85;1.90;;;24.80;64.90;;;;;;5002270;28;20030;-71
2022/01/17 01:35:44;;;;;;;6.10;2.45;;;24.70;65.30;;;;;;4998749;28;20080;-72
2022/01/17 01:38:11;;;;;;;3.65;1.58;;;24.70;65.60;;;;;;4997527;28;20580;-73
2022/01/17 01:40:38;;;;;;;8.27;1.70;;;24.70;65.70;;;;;;5003199;28;20364;-71
2022/01/17 01:43:04;;;;;;;6.28;2.00;;;24.70;65.90;;;;;;5006618;28;20423;-68
2022/01/17 01:45:31;;;;;;;6.15;1.65;;;24.70;66.10;;;;;;4999318;28;20092;-72
2022/01/17 01:47:58;;;;;;;6.90;2.40;;;24.70;66.10;;;;;;5001870;28;20533;-72
2022/01/17 01:50:25;;;;;;;4.72;1.98;;;24.70;66.10;;;;;;4995814;28;20030;-73
2022/01/17 01:52:51;;;;;;;4.18;1.83;;;24.70;66.10;;;;;;4997632;28;20034;-73
2022/01/17 01:55:21;;;;;;;3.92;2.05;;;24.70;66.10;;;;;;5001300;28;20462;-74
2022/01/17 01:57:48;;;;;;;3.95;1.92;;;24.70;66.30;;;;;;5001342;28;20465;-73
2022/01/17 02:00:16;;;;;;;5.75;2.97;;;24.60;66.20;;;;;;5002014;28;20109;-71
2022/01/17 02:02:42;;;;;;;5.55;1.98;;;24.60;66.30;;;;;;5000820;28;20049;-75
2022/01/17 02:05:09;;;;;;;4.65;1.90;;;24.60;66.20;;;;;;5001189;28;20494;-68
2022/01/17 02:07:36;;;;;;;4.95;2.33;;;24.60;66.20;;;;;;5001517;28;20031;-74
2022/01/17 02:10:04;;;;;;;7.30;2.05;;;24.60;66.10;;;;;;4997473;28;20026;-69
2022/01/17 02:12:32;;;;;;;4.72;1.65;;;24.60;65.90;;;;;;4996199;28;20022;-72
2022/01/17 02:14:59;;;;;;;3.65;2.13;;;24.60;65.90;;;;;;5000666;28;20025;-69
2022/01/17 02:17:26;;;;;;;6.45;2.58;;;24.60;65.90;;;;;;4996829;28;20910;-72
2022/01/17 02:20:09;;;;;;;4.90;1.88;;;24.60;66.00;;;;;;4993598;28;20053;-74
2022/01/17 02:22:39;;;;;;;7.32;1.92;;;24.50;66.00;;;;;;4996088;28;20048;-70
2022/01/17 02:25:06;;;;;;;18.40;2.75;;;24.50;66.20;;;;;;4994027;28;20216;-70
2022/01/17 02:27:33;;;;;;;12.63;3.90;;;24.50;66.50;;;;;;4996524;28;20104;-74
2022/01/17 02:29:59;;;;;;;8.23;2.17;;;24.50;67.00;;;;;;4996066;28;20397;-73
2022/01/17 02:32:26;;;;;;;7.55;2.88;;;24.40;66.10;;;;;;4992231;28;20042;-71
2022/01/17 02:35:09;;;;;;;8.88;2.25;;;24.40;65.80;;;;;;4998062;28;20524;-69
2022/01/17 02:37:36;;;;;;;19.45;2.28;;;24.40;65.70;;;;;;4995659;28;20022;-69
2022/01/17 02:40:02;;;;;;;11.45;2.92;;;24.40;65.60;;;;;;5000766;28;20037;-69
2022/01/17 02:42:29;;;;;;;16.92;3.13;;;24.30;65.60;;;;;;5001853;28;20022;-71
2022/01/17 02:45:05;;;;;;;15.32;4.00;;;24.30;65.60;;;;;;4996782;28;20085;-68
2022/01/17 02:47:31;;;;;;;17.48;2.63;;;24.30;65.70;;;;;;4997005;28;20379;-69
2022/01/17 02:49:57;;;;;;;10.13;2.20;;;24.30;65.80;;;;;;5001077;28;20630;-75
2022/01/17 02:52:24;;;;;;;15.07;4.22;;;24.30;65.70;;;;;;5000965;28;20437;-69
2022/01/17 02:54:50;;;;;;;20.83;2.90;;;24.30;65.80;;;;;;4996739;28;20030;-69
2022/01/17 02:57:17;;;;;;;13.90;2.58;;;24.30;65.70;;;;;;5001543;28;20105;-70
2022/01/17 02:59:43;;;;;;;11.50;1.90;;;24.20;65.60;;;;;;5004158;28;20030;-74
2022/01/17 03:02:10;;;;;;;5.88;2.03;;;24.30;65.60;;;;;;5000153;28;20494;-68
2022/01/17 03:04:36;;;;;;;8.00;1.65;;;24.20;65.40;;;;;;4996519;28;20092;-69
2022/01/17 03:07:03;;;;;;;8.73;2.50;;;24.20;65.30;;;;;;4995045;28;20450;-69
2022/01/17 03:09:38;;;;;;;22.10;3.33;;;24.20;65.30;;;;;;5000312;28;20084;-69
2022/01/17 03:12:05;;;;;;;7.75;2.40;;;24.20;65.20;;;;;;4996951;28;20029;-73
2022/01/17 03:14:33;;;;;;;18.90;2.70;;;24.20;65.30;;;;;;4992961;28;20559;-69
2022/01/17 03:16:59;;;;;;;14.60;2.28;;;24.20;65.40;;;;;;4995190;28;20014;-69
2022/01/17 03:19:25;;;;;;;8.52;2.28;;;24.20;65.30;;;;;;4995322;28;20486;-68
2022/01/17 03:21:52;;;;;;;4.68;1.88;;;24.10;65.20;;;;;;5003568;28;20354;-74
2022/01/17 03:24:18;;;;;;;8.02;2.83;;;24.10;65.10;;;;;;4996286;28;20018;-71
2022/01/17 03:26:45;;;;;;;4.78;1.70;;;24.10;65.10;;;;;;5002691;28;20496;-70
2022/01/17 03:29:11;;;;;;;2.35;1.42;;;24.10;65.10;;;;;;4995232;28;20724;-74
2022/01/17 03:31:38;;;;;;;4.20;1.80;;;24.10;65.10;;;;;;5003515;28;20076;-73
2022/01/17 03:34:05;;;;;;;6.35;1.58;;;24.10;65.00;;;;;;4998420;28;20033;-69
2022/01/17 03:36:32;;;;;;;4.30;1.70;;;24.10;65.10;;;;;;4997615;28;20010;-68
2022/01/17 03:38:58;;;;;;;10.68;2.17;;;24.00;65.10;;;;;;4995598;28;20634;-74
2022/01/17 03:41:25;;;;;;;27.60;2.75;;;24.00;65.20;;;;;;5002733;28;20101;-70
2022/01/17 03:43:52;;;;;;;16.05;2.40;;;24.00;66.00;;;;;;4996057;28;20061;-69
2022/01/17 03:46:19;;;;;;;16.40;2.92;;;24.00;65.20;;;;;;4995873;28;20046;-73
2022/01/17 03:48:45;;;;;;;13.80;3.17;;;24.00;65.00;;;;;;4999230;28;20500;-70
2022/01/17 03:51:12;;;;;;;11.00;2.85;;;24.00;64.90;;;;;;4995785;28;20031;-71
2022/01/17 03:53:38;;;;;;;8.07;3.20;;;24.00;64.70;;;;;;4999264;28;20010;-74
2022/01/17 03:56:05;;;;;;;9.85;2.65;;;23.90;64.70;;;;;;4995560;28;20033;-70
2022/01/17 03:58:32;;;;;;;7.50;3.30;;;23.90;64.70;;;;;;5000877;28;20014;-72
2022/01/17 04:00:59;;;;;;;21.33;5.53;;;23.90;64.90;;;;;;4994306;28;20041;-69
2022/01/17 04:03:26;;;;;;;39.83;19.15;;;23.80;64.80;;;;;;5008648;28;20120;-70
2022/01/17 04:05:54;;;;;;;39.33;24.23;;;23.70;65.30;;;;;;4996437;28;20512;-71
2022/01/17 04:08:20;;;;;;;33.22;18.73;;;23.70;65.50;;;;;;4991139;28;20539;-69
2022/01/17 04:10:51;;;;;;;21.63;11.88;;;23.70;65.40;;;;;;4995143;28;20088;-72
2022/01/17 04:13:18;;;;;;;39.92;8.57;;;23.70;65.30;;;;;;4999836;28;20354;-70
2022/01/17 04:15:46;;;;;;;25.55;6.85;;;23.70;65.40;;;;;;4994639;28;20030;-71
2022/01/17 04:18:23;;;;;;;22.55;5.72;;;23.70;65.50;;;;;;4994014;28;20381;-73
2022/01/17 04:20:50;;;;;;;11.40;4.60;;;23.70;65.50;;;;;;4997568;28;20018;-71
2022/01/17 04:23:18;;;;;;;15.00;4.22;;;23.70;65.40;;;;;;4996571;28;20076;-68
2022/01/17 04:25:45;;;;;;;16.88;4.00;;;23.70;65.30;;;;;;4993871;28;20505;-72
2022/01/17 04:28:18;;;;;;;14.82;4.03;;;23.70;65.40;;;;;;4994170;28;20030;-67
2022/01/17 04:30:47;;;;;;;17.92;4.07;;;23.80;65.60;;;;;;5000319;28;20041;-67
2022/01/17 04:33:16;;;;;;;13.18;4.80;;;23.80;65.90;;;;;;4994309;28;20034;-77
2022/01/17 04:35:44;;;;;;;21.38;5.07;;;23.80;66.10;;;;;;4998343;28;20108;-69
2022/01/17 04:38:17;;;;;;;39.47;16.88;;;23.80;66.10;;;;;;4995923;28;20408;-74
2022/01/17 04:40:46;;;;;;;43.80;15.93;;;23.80;66.40;;;;;;5000448;28;20016;-66
2022/01/17 04:46:09;;;;;;;13.73;6.78;;;23.90;67.10;;;;;;4994887;28;20497;-67
2022/01/17 04:48:46;;;;;;;23.17;6.43;;;23.90;67.30;;;;;;4996603;28;20017;-71
2022/01/17 04:51:55;;;;;;;21.30;4.97;;;23.90;67.50;;;;;;4988761;28;20054;-71
2022/01/17 04:55:03;;;;;;;19.83;5.38;;;23.90;67.60;;;;;;4996944;28;20057;-68
2022/01/17 04:57:49;;;;;;;;;;;23.90;67.80;;;;;;5031693;28;20392;-68
2022/01/17 05:00:55;;;;;;;11.43;3.90;;;23.90;68.00;;;;;;5001977;28;20004;-69
2022/01/17 05:03:41;;;;;;;;;;;23.90;68.10;;;;;;4996130;28;20051;-67
2022/01/17 05:06:47;;;;;;;13.05;3.72;;;23.90;68.20;;;;;;4999408;28;20409;-67
2022/01/17 05:09:53;;;;;;;9.50;3.15;;;24.00;68.20;;;;;;4996478;28;20070;-68
2022/01/17 05:12:59;;;;;;;14.82;4.18;;;24.00;68.20;;;;;;4995891;28;20572;-67
2022/01/17 05:15:51;;;;;;;;;;;24.00;68.30;;;;;;5000185;28;20409;-67
2022/01/17 05:22:22;;;;;;;7.57;3.35;;;24.00;68.20;;;;;;4997870;28;20101;-66
2022/01/17 05:25:28;;;;;;;8.25;3.22;;;24.10;68.10;;;;;;5001051;28;20030;-66
2022/01/17 05:28:14;;;;;;;;;;;24.10;68.10;;;;;;4996653;28;20038;-69
2022/01/17 05:31:22;;;;;;;5.72;2.83;;;24.10;68.00;;;;;;5000819;28;20339;-69
2022/01/17 05:34:28;;;;;;;9.38;3.25;;;24.10;67.90;;;;;;4996913;28;20029;-66
2022/01/17 05:37:14;;;;;;;;;;;24.10;67.90;;;;;;4992188;28;20014;-67
2022/01/17 05:40:20;;;;;;;19.10;3.80;;;24.10;68.00;;;;;;4997806;28;19910;-66
2022/01/17 05:43:26;;;;;;;11.40;2.88;;;24.20;68.10;;;;;;4996274;28;20022;-66
2022/01/17 05:46:32;;;;;;;9.38;2.40;;;24.20;68.10;;;;;;4999182;28;20027;-66
2022/01/17 05:49:18;;;;;;;;;;;24.20;68.00;;;;;;5003704;28;20520;-74
2022/01/17 05:52:24;;;;;;;11.75;2.03;;;24.30;68.00;;;;;;5000460;28;20009;-75
2022/01/17 05:55:10;;;;;;;;;;;24.30;67.70;;;;;;5002360;28;20084;-71
2022/01/17 05:58:16;;;;;;;30.15;5.43;;;24.30;67.50;;;;;;4999689;28;20344;-67
2022/01/17 06:01:22;;;;;;;106.18;11.15;;;24.30;67.30;;;;;;4997624;28;20147;-68
2022/01/17 06:04:28;;;;;;;116.93;10.73;;;24.30;67.10;;;;;;5001832;28;20034;-68
2022/01/17 06:07:36;;;;;;;65.18;9.48;;;24.30;67.20;;;;;;4999772;28;20037;-71
2022/01/17 06:10:42;;;;;;;48.05;5.32;;;24.40;68.30;;;;;;4998545;28;20022;-73
2022/01/17 06:13:49;;;;;;;30.58;4.55;;;24.40;69.00;;;;;;5000884;28;20102;-72
2022/01/17 06:16:55;;;;;;;24.27;3.97;;;24.50;68.90;;;;;;5000016;28;20019;-71
2022/01/17 06:19:41;;;;;;;;;;;24.50;68.90;;;;;;4998506;28;20443;-67
2022/01/17 06:22:47;;;;;;;15.60;3.30;;;24.60;68.70;;;;;;5001304;28;19909;-76
2022/01/17 06:25:33;;;;;;;;;;;24.60;68.40;;;;;;4997914;28;20030;-70
2022/01/17 06:28:39;;;;;;;14.88;2.70;;;24.60;68.50;;;;;;4996814;28;19912;-69
2022/01/17 06:31:24;;;;;;;;;;;24.70;68.40;;;;;;4995474;28;20050;-71
2022/01/17 06:34:30;;;;;;;9.50;2.10;;;24.70;68.30;;;;;;5005294;28;19977;-70
2022/01/17 06:37:16;;;;;;;;;;;24.80;68.10;;;;;;5003108;28;20030;-70
2022/01/17 06:40:22;;;;;;;6.60;1.67;;;24.80;67.90;;;;;;5001770;28;19975;-69
2022/01/17 06:43:08;;;;;;;;;;;24.90;67.80;;;;;;4999652;28;20032;-69
2022/01/17 06:46:15;;;;;;;8.48;1.95;;;24.90;67.70;;;;;;5001046;28;19956;-71
2022/01/17 06:49:21;;;;;;;6.90;1.65;;;24.90;67.50;;;;;;4997841;28;20017;-72
2022/01/17 06:52:06;;;;;;;;;;;25.00;67.40;;;;;;4992945;28;20088;-70
2022/01/17 06:55:12;;;;;;;8.63;1.75;;;25.00;67.50;;;;;;4999529;28;20445;-69
2022/01/17 06:57:58;;;;;;;;;;;25.00;67.40;;;;;;4999041;28;20378;-69
2022/01/17 07:01:04;;;;;;;37.55;6.40;;;25.00;67.50;;;;;;4997807;28;19953;-70
2022/01/17 07:03:50;;;;;;;;;;;25.10;67.50;;;;;;5002075;28;20384;-70
2022/01/17 07:06:56;;;;;;;25.63;3.78;;;25.10;67.30;;;;;;5001842;28;20553;-70
2022/01/17 07:10:02;;;;;;;23.13;3.40;;;25.20;67.20;;;;;;4997581;28;20022;-70
2022/01/17 07:12:48;;;;;;;;;;;25.20;67.10;;;;;;4998104;28;20022;-70
2022/01/17 07:15:54;;;;;;;13.35;2.55;;;25.30;67.20;;;;;;5001622;28;19905;-70
2022/01/17 07:18:40;;;;;;;;;;;25.30;67.00;;;;;;5000982;28;20025;-70
2022/01/17 07:21:47;;;;;;;15.70;2.83;;;25.40;66.70;;;;;;5000802;28;20282;-70
2022/01/17 07:24:54;;;;;;;11.60;3.25;;;25.40;66.50;;;;;;4998165;28;20030;-70
2022/01/17 07:28:00;;;;;;;14.60;2.13;;;25.50;66.70;;;;;;5000727;28;20026;-70
2022/01/17 07:30:46;;;;;;;;;;;25.50;66.40;;;;;;5002082;28;20029;-71
2022/01/17 07:33:52;;;;;;;10.48;1.95;;;25.60;66.10;;;;;;4998250;28;19909;-70
2022/01/17 07:36:38;;;;;;;;;;;25.70;65.80;;;;;;5000860;28;20018;-69
2022/01/17 07:39:44;;;;;;;7.20;1.73;;;25.70;65.70;;;;;;4998108;28;20033;-67
2022/01/17 07:42:50;;;;;;;7.45;3.45;;;25.70;65.30;;;;;;4998458;28;20034;-70
2022/01/17 07:46:07;;;;;;;5.18;3.83;;;25.80;65.10;;;;;;4994500;28;20053;-70
2022/01/17 07:49:19;;;;;;;12.48;3.90;;;25.80;65.00;;;;;;4994832;28;20381;-71
2022/01/17 07:52:26;;;;;;;12.48;5.70;;;25.90;65.20;;;;;;4996627;28;20034;-70
2022/01/17 07:55:32;;;;;;;12.38;4.90;;;25.90;65.00;;;;;;4996378;28;20018;-68
2022/01/17 07:58:40;;;;;;;20.83;3.03;;;26.00;64.80;;;;;;4998504;28;20061;-70
2022/01/17 08:01:46;;;;;;;12.10;2.88;;;26.00;64.10;;;;;;4995973;28;20019;-68
2022/01/17 08:04:32;;;;;;;;;;;26.00;63.80;;;;;;4999133;28;20041;-70
2022/01/17 08:07:38;;;;;;;19.83;2.35;;;26.00;63.50;;;;;;4999479;28;19913;-70
2022/01/17 08:10:25;;;;;;;;;;;26.10;63.50;;;;;;4999298;28;20022;-69
2022/01/17 08:13:32;;;;;;;11.40;2.40;;;26.20;63.50;;;;;;4999216;28;20000;-69
2022/01/17 08:16:38;;;;;;;24.73;3.90;;;26.20;63.00;;;;;;4992527;28;20473;-76
2022/01/17 08:19:47;;;;;;;11.90;2.15;;;26.30;62.90;;;;;;4998944;28;20022;-72
2022/01/17 08:22:53;;;;;;;19.85;2.70;;;26.30;62.40;;;;;;4999085;28;20381;-70
2022/01/17 08:25:39;;;;;;;;;;;26.40;62.40;;;;;;4998591;28;20022;-69
2022/01/17 08:28:45;;;;;;;5.78;1.73;;;26.40;62.10;;;;;;4996631;28;19916;-76
2022/01/17 08:31:51;;;;;;;8.35;1.70;;;26.50;61.80;;;;;;4999767;28;20088;-69
2022/01/17 08:34:57;;;;;;;8.25;1.33;;;26.50;61.50;;;;;;4999728;28;20022;-72
2022/01/17 08:38:03;;;;;;;4.38;1.80;;;26.60;61.10;;;;;;5014969;28;20113;-69
2022/01/17 08:41:09;;;;;;;4.72;1.05;;;26.60;60.70;;;;;;4998740;28;20482;-70
2022/01/17 08:44:17;;;;;;;9.95;1.80;;;26.70;60.40;;;;;;5001848;28;20018;-70
2022/01/17 08:47:24;;;;;;;4.07;1.15;;;26.80;60.20;;;;;;4996177;28;20047;-74
2022/01/17 08:50:30;;;;;;;5.07;1.33;;;26.80;60.00;;;;;;4996383;28;20017;-69
2022/01/17 08:53:36;;;;;;;5.28;1.60;;;26.90;60.30;;;;;;4999251;28;20575;-69
2022/01/17 08:56:42;;;;;;;4.88;1.40;;;26.90;59.50;;;;;;4998012;28;20062;-77
2022/01/17 08:59:48;;;;;;;9.43;1.17;;;27.00;59.50;;;;;;4999210;28;20021;-69
2022/01/17 09:02:54;;;;;;;8.15;1.63;;;27.00;59.40;;;;;;4995383;28;20124;-73
2022/01/17 09:06:02;;;;;;;5.07;1.50;;;27.10;59.10;;;;;;4997412;28;20073;-75
2022/01/17 09:09:08;;;;;;;7.32;1.42;;;27.10;58.90;;;;;;4999963;28;20540;-69
2022/01/17 09:12:15;;;;;;;5.10;1.63;;;27.20;58.70;;;;;;4994705;28;20029;-74
2022/01/17 09:15:21;;;;;;;8.90;1.60;;;27.20;58.60;;;;;;4996109;28;20025;-68
2022/01/17 09:18:28;;;;;;;4.70;1.80;;;27.30;58.80;;;;;;5000162;28;20045;-78
2022/01/17 09:21:34;;;;;;;13.63;2.10;;;27.30;58.50;;;;;;5000662;28;20037;-70
2022/01/17 09:24:43;;;;;;;6.45;2.38;;;27.40;57.80;;;;;;5003257;28;20388;-71
2022/01/17 09:27:49;;;;;;;10.25;1.30;;;27.40;57.80;;;;;;5003827;28;20046;-70
2022/01/17 09:30:56;;;;;;;4.35;1.30;;;27.50;57.60;;;;;;4998972;28;20492;-69
2022/01/17 09:34:02;;;;;;;3.83;1.17;;;27.60;57.30;;;;;;4996480;28;20097;-77
2022/01/17 09:37:09;;;;;;;4.68;1.33;;;27.60;56.70;;;;;;5000276;28;20540;-69
2022/01/17 09:40:15;;;;;;;6.32;1.52;;;27.70;56.60;;;;;;4998424;28;20011;-76
2022/01/17 09:43:21;;;;;;;13.18;1.60;;;27.70;56.70;;;;;;5001748;28;20014;-69
2022/01/17 09:46:32;;;;;;;8.75;1.58;;;27.80;56.60;;;;;;4995391;28;20034;-69
2022/01/17 09:49:59;;;;;;;17.55;3.25;;;27.80;56.60;;;;;;4997012;28;20018;-69
2022/01/17 09:53:06;;;;;;;8.98;2.22;;;27.90;56.60;;;;;;5002968;28;20061;-69
2022/01/17 09:56:12;;;;;;;2.55;1.67;;;28.00;56.40;;;;;;5000545;28;20022;-69
2022/01/17 09:59:19;;;;;;;2.28;1.42;;;28.10;56.20;;;;;;4999141;28;20462;-72
2022/01/17 10:02:25;;;;;;;5.22;1.95;;;28.10;56.10;;;;;;5002666;28;20421;-69
2022/01/17 10:05:31;;;;;;;16.10;2.97;;;28.20;56.00;;;;;;5000138;28;20070;-70
2022/01/17 10:08:23;;;;;;;10.55;2.47;;;28.20;56.00;;;;;;4995763;28;20505;-78
2022/01/17 10:11:29;;;;;;;5.57;2.15;;;28.30;55.90;;;;;;4997540;28;20516;-79
2022/01/17 10:14:44;;;;;;;8.40;1.63;;;28.30;56.60;;;;;;5003989;28;20025;-69
2022/01/17 10:18:02;;;;;;;4.45;1.48;;;28.40;55.80;;;;;;5002345;28;20026;-73
2022/01/17 10:21:12;;;;;;;9.95;2.10;;;28.50;55.70;;;;;;5002364;28;20026;-70
2022/01/17 10:24:26;;;;;;;9.23;2.30;;;28.50;55.50;;;;;;4994512;28;20645;-69
2022/01/17 10:31:23;;;;;;;15.00;3.17;;;28.70;55.70;;;;;;4998489;28;20030;-76
2022/01/17 10:34:55;;;;;;;8.82;1.50;;;28.70;55.30;;;;;;5002610;28;20297;-71
2022/01/17 10:38:01;;;;;;;5.10;1.30;;;28.80;54.80;;;;;;4998510;28;20046;-70
2022/01/17 10:41:16;;;;;;;3.25;1.70;;;28.90;54.60;;;;;;4998628;28;20490;-72
2022/01/17 10:44:22;;;;;;;16.40;2.40;;;28.90;54.60;;;;;;4997199;28;20390;-70
2022/01/17 10:47:39;;;;;;;9.88;1.75;;;29.00;54.80;;;;;;4997650;28;20034;-71
2022/01/17 10:50:50;;;;;;;4.90;1.60;;;29.00;54.50;;;;;;5001662;28;20030;-74
2022/01/17 10:53:56;;;;;;;8.18;2.10;;;29.10;54.20;;;;;;4998408;28;20015;-70
2022/01/17 10:57:12;;;;;;;8.40;2.10;;;29.20;54.10;;;;;;4997916;28;20096;-70
2022/01/17 11:00:18;;;;;;;4.30;1.30;;;29.20;54.30;;;;;;5002678;28;20092;-70
2022/01/17 11:03:24;;;;;;;8.07;1.70;;;29.30;54.60;;;;;;4995658;28;20130;-70
2022/01/17 11:06:30;;;;;;;5.05;1.73;;;29.30;54.30;;;;;;5002231;28;20069;-70
2022/01/17 11:09:36;;;;;;;4.85;1.33;;;29.40;54.00;;;;;;5002393;28;20030;-70
2022/01/17 11:12:42;;;;;;;12.70;2.20;;;29.40;53.90;;;;;;4995606;28;20420;-71
2022/01/17 11:15:50;;;;;;;15.32;2.40;;;29.50;53.90;;;;;;5002449;28;20098;-77
2022/01/17 11:19:10;;;;;;;9.73;1.70;;;29.50;53.90;;;;;;4996381;28;20544;-78
2022/01/17 11:22:17;;;;;;;9.77;1.60;;;29.60;53.90;;;;;;4997417;28;20144;-74
2022/01/17 11:25:24;;;;;;;5.85;1.45;;;29.60;53.80;;;;;;5000183;28;20045;-77
2022/01/17 11:28:30;;;;;;;4.47;1.58;;;29.70;53.80;;;;;;5003820;28;20033;-73
2022/01/17 11:31:36;;;;;;;11.30;2.45;;;29.80;54.00;;;;;;4999211;28;20033;-71
2022/01/17 11:34:42;;;;;;;9.23;3.25;;;29.80;54.20;;;;;;4995344;28;20034;-70
2022/01/17 11:37:48;;;;;;;5.10;1.80;;;29.90;54.50;;;;;;5001899;28;20496;-70
2022/01/17 11:40:54;;;;;;;5.72;1.48;;;30.00;54.40;;;;;;4995855;28;20034;-70
2022/01/17 11:43:42;;;;;;;10.25;1.77;;;30.00;54.10;;;;;;5001306;28;20077;-75
2022/01/17 11:46:17;;;;;;;8.13;2.15;;;30.10;53.80;;;;;;4995345;28;20052;-78
2022/01/17 11:49:35;;;;;;;15.93;2.88;;;30.10;53.60;;;;;;4995946;28;20038;-71
2022/01/17 11:52:47;;;;;;;5.60;1.70;;;30.10;53.50;;;;;;4998185;28;20037;-70
2022/01/17 11:55:42;;;;;;;5.10;1.70;;;30.20;53.80;;;;;;4994644;28;20400;-70
2022/01/17 11:58:26;;;;;;;;;;;30.20;53.80;;;;;;5001404;28;20033;-70
2022/01/17 12:01:01;;;;;;;8.00;1.77;;;30.30;53.90;;;;;;4998886;28;20323;-74
2022/01/17 12:04:13;;;;;;;3.47;1.42;;;30.30;53.80;;;;;;4999751;28;20046;-74
2022/01/17 12:07:19;;;;;;;5.65;2.00;;;30.30;53.70;;;;;;4998474;28;20132;-77
2022/01/17 12:10:25;;;;;;;4.05;1.27;;;30.40;53.60;;;;;;5000783;28;20092;-71
2022/01/17 12:13:19;;;;;;;5.00;2.00;;;30.50;53.40;;;;;;4998575;28;20115;-71
2022/01/17 12:16:07;;;;;;;4.57;1.20;;;30.50;53.60;;;;;;4992730;28;20053;-71
2022/01/17 12:18:56;;;;;;;3.65;1.50;;;30.60;53.90;;;;;;5000186;28;20029;-67
2022/01/17 12:21:35;;;;;;;5.85;1.70;;;30.60;54.00;;;;;;5000505;28;20077;-70
2022/01/17 12:24:17;;;;;;;16.63;1.85;;;30.60;54.20;;;;;;5002027;28;20033;-70
2022/01/17 12:27:24;;;;;;;5.05;1.52;;;30.60;53.80;;;;;;4994581;28;20064;-70
2022/01/17 12:30:30;;;;;;;7.75;1.35;;;30.60;53.70;;;;;;4997492;28;20048;-70
2022/01/17 12:33:28;;;;;;;18.98;3.67;;;30.60;53.50;;;;;;5000184;28;20019;-70
2022/01/17 12:36:29;;;;;;;10.60;3.22;;;30.70;53.60;;;;;;5001982;28;20014;-72
2022/01/17 12:39:48;;;;;;;8.05;1.30;;;30.70;53.30;;;;;;4996271;28;20018;-79
2022/01/17 12:43:12;;;;;;;7.55;1.73;;;30.70;53.20;;;;;;4973154;28;20045;-73
2022/01/17 12:46:05;;;;;;;9.60;1.52;;;30.70;53.10;;;;;;4999513;28;20029;-75
2022/01/17 12:49:11;;;;;;;11.52;2.42;;;30.80;53.20;;;;;;4995581;28;20124;-75
2022/01/17 12:52:20;;;;;;;6.90;2.45;;;30.80;53.00;;;;;;5000803;28;20053;-73
2022/01/17 12:55:26;;;;;;;7.88;1.52;;;30.90;53.20;;;;;;5002381;28;20018;-74
2022/01/17 12:58:33;;;;;;;6.78;2.05;;;30.90;53.20;;;;;;5002340;28;20046;-71
2022/01/17 13:01:39;;;;;;;3.92;1.73;;;30.90;53.00;;;;;;5005934;28;20492;-70
2022/01/17 13:04:45;;;;;;;6.30;1.55;;;31.00;52.90;;;;;;5003505;28;20077;-71
2022/01/17 13:07:51;;;;;;;9.52;1.60;;;31.00;53.00;;;;;;5005421;28;20045;-70
2022/01/17 13:10:57;;;;;;;11.15;1.55;;;31.00;53.00;;;;;;5005513;28;20026;-70
2022/01/17 13:14:03;;;;;;;3.05;1.20;;;31.00;53.10;;;;;;5001229;28;20029;-73
2022/01/17 13:17:09;;;;;;;6.78;1.30;;;31.00;53.20;;;;;;5003648;28;20028;-70
2022/01/17 13:20:15;;;;;;;12.50;2.15;;;31.00;53.20;;;;;;5004027;28;20473;-70
2022/01/17 13:23:30;;;;;;;11.38;1.88;;;31.00;53.30;;;;;;5000528;28;20022;-77
2022/01/17 13:26:36;;;;;;;19.30;1.98;;;31.00;53.30;;;;;;4998987;28;20084;-70
2022/01/17 13:29:43;;;;;;;8.30;1.73;;;30.90;53.20;;;;;;5000118;28;20101;-76
2022/01/17 13:32:52;;;;;;;17.77;2.25;;;30.90;53.50;;;;;;5003041;28;20390;-69
2022/01/17 13:35:58;;;;;;;8.00;2.33;;;30.90;53.50;;;;;;5001943;28;20470;-75
2022/01/17 13:39:05;;;;;;;4.40;1.02;;;30.90;53.50;;;;;;5001899;28;20026;-73
2022/01/17 13:42:11;;;;;;;5.30;1.83;;;30.80;53.50;;;;;;5005234;28;20637;-78
2022/01/17 13:45:17;;;;;;;4.53;1.38;;;30.80;53.60;;;;;;5003703;28;20033;-70
2022/01/17 13:48:27;;;;;;;5.90;1.50;;;30.80;53.40;;;;;;5004347;28;20087;-71
2022/01/17 13:51:16;;;;;;;16.98;2.58;;;30.80;53.60;;;;;;5001720;28;20017;-70
2022/01/17 13:54:22;;;;;;;29.77;3.75;;;30.80;53.50;;;;;;5000922;28;20034;-76
2022/01/17 13:57:34;;;;;;;16.48;1.65;;;30.80;53.20;;;;;;4996234;28;20045;-76
2022/01/17 14:00:40;;;;;;;11.18;2.03;;;30.90;52.80;;;;;;5004663;28;20393;-78
2022/01/17 14:03:49;;;;;;;16.88;2.90;;;30.90;52.30;;;;;;4999281;28;20149;-74
2022/01/17 14:06:55;;;;;;;9.85;1.67;;;30.90;51.90;;;;;;4995640;28;20041;-76
2022/01/17 14:10:13;;;;;;;19.30;1.90;;;31.00;51.90;;;;;;4998664;28;20478;-74
2022/01/17 14:13:19;;;;;;;11.98;1.70;;;30.90;52.20;;;;;;5002640;28;20149;-76
2022/01/17 14:16:14;;;;;;;6.85;1.25;;;30.90;52.70;;;;;;4999120;28;20027;-72
2022/01/17 14:19:22;;;;;;;5.75;1.73;;;30.80;52.80;;;;;;5003977;28;20072;-77
2022/01/17 14:22:28;;;;;;;6.43;2.28;;;30.80;53.00;;;;;;5001549;28;20026;-78
2022/01/17 14:25:35;;;;;;;11.77;1.85;;;30.70;53.50;;;;;;5001191;28;20021;-69
2022/01/17 14:28:04;;;;;;;10.15;1.63;;;30.70;53.80;;;;;;4997104;28;20048;-72
2022/01/17 14:30:34;;;;;;;9.80;2.08;;;30.70;53.70;;;;;;4997808;28;20018;-70
2022/01/17 14:33:22;;;;;;;27.05;3.75;;;30.80;55.00;;;;;;5002344;28;20607;-72
2022/01/17 14:36:13;;;;;;;99.78;10.48;;;30.80;54.80;;;;;;5002097;28;20626;-72
2022/01/17 14:38:55;;;;;;;71.93;10.73;;;30.70;55.30;;;;;;4994518;28;20401;-75
2022/01/17 14:41:36;;;;;;;78.78;8.32;;;30.70;55.60;;;;;;5000931;28;20026;-74
2022/01/17 14:44:14;;;;;;;64.68;5.93;;;30.60;55.60;;;;;;4990671;28;20057;-71
2022/01/17 14:46:59;;;;;;;31.33;3.70;;;30.60;56.20;;;;;;4997714;28;20041;-69
2022/01/17 14:49:30;;;;;;;13.73;2.22;;;30.50;56.50;;;;;;4999352;28;20022;-72
2022/01/17 14:52:01;;;;;;;12.75;2.28;;;30.50;56.90;;;;;;5000867;28;20010;-75
2022/01/17 14:54:45;;;;;;;15.30;2.08;;;30.50;57.00;;;;;;5000501;28;20030;-74
2022/01/17 15:00:12;;;;;;;8.38;1.77;;;30.50;56.60;;;;;;4997745;28;20058;-71
2022/01/17 15:02:50;;;;;;;7.00;2.50;;;30.40;56.70;;;;;;4999933;28;20094;-74
2022/01/17 15:05:17;;;;;;;7.50;2.20;;;30.40;56.80;;;;;;4992131;28;20049;-71